Aérodrome :
LOGIN :

S'inscrire | Disclaimer

   EN    FR    IT 

 










Légende :    VFR   VFR Marginal   IFR   IFR Intensif   IFR Très Intensif
Visi : 
Plafond : 
>= 8 km
>= 3000ft
5 à 8 km
1000 à 3000 ft
1500m à 5 km
500 à 1000 ft
800 à 1500m
200 à 500 ft
< 800m
< 200 ft
Symboles :   Orages  Brouillard  Fortes neiges  Fortes précipitations  Vent > 20 kt
SIGMETs :   Divers  Orages  Givrage  Turbulence  Onde Orograph.  Cendres Volcan.






- Altitude de l'aérodrome : 197 ft
- Code IATA : XOG


LFMO - Orange

DERNIER METAR :
  • 210230Z AUTO 21005KT 150V260 9999 -RA BKN026/// BKN033/// BKN043/// ///TCU 18/15 Q1015 TEMPO 2000 TSRA SCT010 BKN040CB

METARs EXPIRÉS :
  • 210200Z AUTO 14009KT 9999 BKN029/// OVC036/// ///TCU 18/14 Q1015 TEMPO 2000 TSRA SCT010 BKN040CB
  • 210130Z AUTO 15011KT 9999 BKN033/// BKN043/// BKN062/// ///CB 18/14 Q1015 TEMPO 2000 TSRA
  • 210100Z AUTO 14010KT 9999 BKN039/// BKN058/// BKN098/// ///CB 18/15 Q1015 TEMPO 2000 TSRA
  • 210030Z AUTO 15011KT 9999 FEW041 BKN056 BKN074 19/16 Q1015 TEMPO 2000 TSRA SCT010 BKN040CB
  • 210000Z AUTO 15011KT 120V180 9999 BKN054 BKN068 BKN170 19/16 Q1015 TEMPO 2000 TSRA SCT010 BKN040CB

TAF TAF LFMO
Valide du 21 à 03h jusqu'au 22 à 03h UTC


210200Z 2103/2203 17010KT 4500 SHRA SCT020 BKN050TCU
TEMPO 2103/2118 2000 TSRA SCT010 BKN040CB
BECMG 2118/2120 9999 NSW BKN010
BECMG 2123/2201 CAVOK



MET'MAP, la Météo Aéronautique d'un coup d'oeil ! - Copyright ORBIFLY Décembre 2007 - Disclaimer

ORBIFLY MET'MAP TEAM :

Programmation & Développement : Alexandra Zaïnal
Conception & Développement : Baudouin d'Aumeries
Co-Programmation & Développement : Marc-Olivier Méhu
Soutien technique & logistique : Manuel Goepfert

Contact : metmap@orbifly.com




SOURCES & CREDITS :

   NOAA